Time;durP1;ratioP1;P1;durP2;ratioP2;P2;SDS_P1;SDS_P2;PMS_P1;PMS_P2;Temp;Humidity;BMP_temperature;BMP_pressure;BME280_temperature;BME280_humidity;BME280_pressure;Samples;Min_cycle;Max_cycle;Signal;HPM_P1;HPM_P2
2023/02/02 00:00:59;;;;;;;0.15;0.15;;;;;;;10.22;64.70;102223.44;5038855;28;20508;-82
2023/02/02 00:03:25;;;;;;;0.10;0.10;;;;;;;10.28;64.33;102208.47;5049236;28;20017;-80
2023/02/02 00:05:53;;;;;;;0.10;0.10;;;;;;;10.28;64.02;102213.75;5042735;28;20120;-81
2023/02/02 00:08:20;;;;;;;0.10;0.10;;;;;;;10.27;63.89;102216.38;5034457;28;20029;-81
2023/02/02 00:10:47;;;;;;;0.10;0.10;;;;;;;10.29;64.04;102215.53;5046028;28;20074;-84
2023/02/02 00:13:13;;;;;;;0.10;0.10;;;;;;;10.38;63.56;102203.22;5045860;28;20044;-80
2023/02/02 00:15:40;;;;;;;0.20;0.20;;;;;;;10.41;63.41;102208.53;5042605;28;20036;-80
2023/02/02 00:18:06;;;;;;;0.10;0.10;;;;;;;10.32;63.53;102215.53;5043330;28;20029;-79
2023/02/02 00:20:34;;;;;;;0.10;0.10;;;;;;;10.43;63.23;102212.06;5042147;28;20029;-81
2023/02/02 00:23:00;;;;;;;0.10;0.10;;;;;;;10.34;63.34;102219.06;5041367;28;20056;-82
2023/02/02 00:25:27;;;;;;;0.10;0.10;;;;;;;10.40;63.30;102217.34;5050330;28;20523;-81
2023/02/02 00:27:53;;;;;;;0.08;0.08;;;;;;;10.48;62.99;102215.59;5046071;28;20120;-78
2023/02/02 00:30:19;;;;;;;0.13;0.13;;;;;;;10.50;62.95;102213.84;5049338;28;20100;-79
2023/02/02 00:32:47;;;;;;;0.17;0.17;;;;;;;10.42;62.91;102226.16;5040806;28;20025;-82
2023/02/02 00:35:14;;;;;;;0.17;0.17;;;;;;;10.43;63.08;102223.56;5035721;28;20043;-80
2023/02/02 00:37:40;;;;;;;0.10;0.10;;;;;;;10.51;62.97;102226.22;5045535;28;20511;-80
2023/02/02 00:40:08;;;;;;;37.60;1.33;;;;;;;10.43;63.04;102212.94;5042376;28;20116;-79
2023/02/02 00:42:34;;;;;;;0.10;0.10;;;;;;;10.48;62.67;102236.78;5046408;28;20036;-84
2023/02/02 00:45:16;;;;;;;0.20;0.20;;;;;;;10.51;62.58;102211.19;5043346;28;20045;-80
2023/02/02 00:47:44;;;;;;;0.20;0.20;;;;;;;10.55;62.41;102214.72;5035810;28;20103;-81
2023/02/02 00:50:12;;;;;;;0.20;0.20;;;;;;;10.66;62.53;102222.72;5040925;28;20029;-80
2023/02/02 00:52:38;;;;;;;0.00;0.00;;;;;;;10.62;62.18;102229.78;5037019;28;20090;-80
2023/02/02 00:55:05;;;;;;;0.10;0.10;;;;;;;10.59;62.22;102219.19;5037988;28;20037;-80
2023/02/02 00:57:31;;;;;;;0.10;0.10;;;;;;;10.60;62.65;102230.66;5044535;28;20073;-82
2023/02/02 00:59:57;;;;;;;0.10;0.10;;;;;;;10.58;62.63;102238.59;5041797;28;20034;-79
2023/02/02 01:02:23;;;;;;;0.32;0.32;;;;;;;10.59;62.47;102221.81;5053383;28;20036;-79
2023/02/02 01:04:50;;;;;;;0.30;0.30;;;;;;;10.66;62.19;102215.63;5051021;28;20033;-82
2023/02/02 01:07:16;;;;;;;0.10;0.10;;;;;;;10.58;61.99;102228.00;5041342;28;20565;-80
2023/02/02 01:09:43;;;;;;;0.10;0.10;;;;;;;10.57;61.88;102226.22;5045449;28;20025;-80
2023/02/02 01:12:09;;;;;;;0.10;0.10;;;;;;;10.56;62.13;102229.75;5047155;28;20521;-79
2023/02/02 01:14:35;;;;;;;0.10;0.10;;;;;;;10.59;61.81;102224.47;5042357;28;20049;-79
2023/02/02 01:17:01;;;;;;;0.55;0.55;;;;;;;10.54;62.24;102218.25;5038318;28;20037;-80
2023/02/02 01:19:27;;;;;;;0.47;0.47;;;;;;;10.64;62.12;102219.16;5057080;28;20028;-81
2023/02/02 01:21:53;;;;;;;0.10;0.10;;;;;;;10.61;62.23;102221.81;5039297;28;20201;-80
2023/02/02 01:24:19;;;;;;;0.10;0.10;;;;;;;10.64;61.84;102230.66;5052616;28;20037;-78
2023/02/02 01:26:45;;;;;;;0.10;0.10;;;;;;;10.61;61.72;102222.69;5038317;28;20049;-79
2023/02/02 01:29:11;;;;;;;0.40;0.40;;;;;;;10.65;61.76;102223.59;5045176;28;20409;-80
2023/02/02 01:31:37;;;;;;;0.10;0.10;;;;;;;10.68;61.68;102256.28;5045860;28;20093;-83
2023/02/02 01:34:03;;;;;;;0.38;0.38;;;;;;;10.59;61.96;102208.56;5045514;28;20527;-82
2023/02/02 01:36:30;;;;;;;2.42;1.10;;;;;;;10.57;61.97;102220.94;5043971;28;20033;-81
2023/02/02 01:38:56;;;;;;;0.15;0.15;;;;;;;10.62;61.69;102234.19;5042298;28;20029;-81
2023/02/02 01:41:24;;;;;;;0.03;0.03;;;;;;;10.56;61.88;102219.16;5050525;28;20070;-82
2023/02/02 01:43:54;;;;;;;0.20;0.20;;;;;;;10.55;62.13;102214.72;5041764;28;20032;-83
2023/02/02 01:46:25;;;;;;;0.10;0.10;;;;;;;10.50;62.18;102229.75;5038148;28;20435;-82
2023/02/02 01:51:54;;;;;;;0.17;0.17;;;;;;;10.62;62.06;102229.78;5063277;28;20411;-80
2023/02/02 01:54:27;;;;;;;0.10;0.10;;;;;;;10.53;62.16;102235.06;5046521;28;20060;-80
2023/02/02 01:56:59;;;;;;;0.45;0.45;;;;;;;10.46;62.56;102235.91;5041006;28;20575;-81
2023/02/02 01:59:27;;;;;;;0.10;0.10;;;;;;;10.49;62.16;102234.16;5039149;28;20033;-81
2023/02/02 02:01:53;;;;;;;0.10;0.10;;;;;;;10.48;62.36;102232.41;5047624;28;20036;-80
2023/02/02 02:04:22;;;;;;;0.10;0.10;;;;;;;10.42;62.51;102242.06;5045645;28;20048;-80
2023/02/02 02:06:50;;;;;;;4.00;2.53;;;;;;;10.48;62.47;102242.09;5046080;28;20043;-81
2023/02/02 02:09:17;;;;;;;0.20;0.20;;;;;;;10.43;62.60;102233.25;5043213;28;20029;-81
2023/02/02 02:11:43;;;;;;;0.10;0.10;;;;;;;10.36;62.85;102235.88;5051959;28;20036;-81
2023/02/02 02:17:28;;;;;;;0.10;0.10;;;;;;;10.54;62.49;102249.19;5054275;28;20037;-81
2023/02/02 02:27:14;;;;;;;3.72;2.40;;;;;;;10.54;62.29;102242.09;5049167;28;20041;-84
2023/02/02 02:30:06;;;;;;;0.10;0.10;;;;;;;10.58;62.42;102243.91;5044022;28;20112;-79
2023/02/02 02:32:47;;;;;;;0.10;0.10;;;;;;;10.62;62.03;102229.78;5065757;28;20108;-78
2023/02/02 02:40:46;;;;;;;0.10;0.10;;;;;;;10.63;61.79;102223.59;5065307;28;20408;-81
2023/02/02 02:43:20;;;;;;;0.10;0.10;;;;;;;10.60;62.07;102228.88;5064359;28;20139;-81
2023/02/02 02:45:46;;;;;;;0.10;0.10;;;;;;;10.65;61.63;102239.50;5056931;28;20041;-80
2023/02/02 02:48:13;;;;;;;2.97;0.85;;;;;;;10.74;61.54;102238.63;5062916;28;20087;-81
2023/02/02 02:50:39;;;;;;;0.28;0.28;;;;;;;10.76;61.33;102223.63;5056146;28;20423;-82
2023/02/02 02:53:09;;;;;;;9.32;1.25;;;;;;;10.64;61.66;102227.13;5055935;28;20043;-83
2023/02/02 02:55:46;;;;;;;0.10;0.10;;;;;;;10.67;61.83;102228.00;5062879;28;20596;-79
2023/02/02 02:58:25;;;;;;;0.10;0.10;;;;;;;10.61;61.90;102211.22;5074616;28;20032;-79
2023/02/02 03:01:13;;;;;;;0.13;0.13;;;;;;;10.60;62.03;102205.03;5064317;28;20024;-82
2023/02/02 03:03:52;;;;;;;0.00;0.00;;;;;;;10.61;61.88;102212.09;5062049;28;20038;-82
2023/02/02 03:06:43;;;;;;;0.10;0.10;;;;;;;10.60;62.46;102215.63;5067789;28;20021;-81
2023/02/02 03:09:18;;;;;;;0.10;0.10;;;;;;;10.67;61.67;102216.53;5063778;28;20041;-81
2023/02/02 03:11:45;;;;;;;0.00;0.00;;;;;;;10.62;61.83;102223.59;5061896;28;20029;-80
2023/02/02 03:14:12;;;;;;;0.10;0.10;;;;;;;10.51;62.12;102220.91;5060443;28;20071;-79
2023/02/02 03:16:38;;;;;;;1.55;1.45;;;;;;;10.58;62.43;102230.66;5062222;28;20041;-82
2023/02/02 03:19:06;;;;;;;0.10;0.10;;;;;;;10.57;62.36;102231.53;5067775;28;20029;-80
2023/02/02 03:21:33;;;;;;;0.05;0.05;;;;;;;10.56;62.15;102237.72;5053992;28;20091;-81
2023/02/02 03:23:59;;;;;;;0.40;0.40;;;;;;;10.57;62.28;102247.44;5057778;28;20049;-80
2023/02/02 03:26:26;;;;;;;0.15;0.15;;;;;;;10.61;62.23;102233.31;5058648;28;20041;-82
2023/02/02 03:28:54;;;;;;;0.20;0.20;;;;;;;10.53;62.40;102237.72;5058426;28;20103;-81
2023/02/02 03:31:20;;;;;;;0.00;0.00;;;;;;;10.58;62.14;102238.59;5059699;28;20036;-81
2023/02/02 03:33:46;;;;;;;0.10;0.10;;;;;;;10.55;62.20;102235.94;5056605;28;20025;-80
2023/02/02 03:36:12;;;;;;;0.63;0.63;;;;;;;10.56;62.32;102248.31;5053649;28;20033;-82
2023/02/02 03:38:38;;;;;;;0.10;0.10;;;;;;;10.63;62.18;102243.91;5060772;28;20060;-81
2023/02/02 03:41:05;;;;;;;0.10;0.10;;;;;;;10.61;62.16;102254.50;5057936;28;20120;-80
2023/02/02 03:43:31;;;;;;;0.10;0.10;;;;;;;10.52;62.24;102255.38;5061016;28;20502;-82
2023/02/02 03:45:59;;;;;;;0.10;0.10;;;;;;;10.58;62.02;102254.50;5055813;28;20037;-82
2023/02/02 03:48:26;;;;;;;1.02;1.00;;;;;;;10.58;62.18;102254.50;5058771;28;20505;-81
2023/02/02 03:50:53;;;;;;;0.10;0.10;;;;;;;10.60;61.82;102246.56;5055636;28;20044;-82
2023/02/02 03:53:19;;;;;;;0.22;0.22;;;;;;;10.59;61.94;102250.06;5043048;28;20028;-81
2023/02/02 03:55:45;;;;;;;0.10;0.10;;;;;;;10.66;61.72;102250.09;5049802;28;20097;-80
2023/02/02 03:58:11;;;;;;;0.10;0.10;;;;;;;10.65;61.73;102260.69;5048153;28;20026;-81
2023/02/02 04:00:37;;;;;;;0.40;0.40;;;;;;;10.67;61.62;102264.25;5038783;28;20032;-79
2023/02/02 04:03:03;;;;;;;0.40;0.40;;;;;;;10.60;61.98;102268.63;5050124;28;20030;-77
2023/02/02 04:05:29;;;;;;;0.10;0.10;;;;;;;10.61;62.06;102257.16;5059423;28;20056;-78
2023/02/02 04:07:56;;;;;;;0.35;0.35;;;;;;;10.70;61.88;102258.06;5064347;28;20036;-80
2023/02/02 04:10:22;;;;;;;0.35;0.35;;;;;;;10.57;61.89;102247.44;5050523;28;20021;-81
2023/02/02 04:12:48;;;;;;;0.10;0.10;;;;;;;10.65;62.05;102251.00;5053228;28;20022;-80
2023/02/02 04:15:14;;;;;;;0.10;0.10;;;;;;;10.57;62.46;102236.84;5048932;28;20108;-81
2023/02/02 04:17:40;;;;;;;0.13;0.13;;;;;;;10.59;62.48;102250.97;5042027;28;20097;-82
2023/02/02 04:20:06;;;;;;;0.10;0.10;;;;;;;10.55;62.22;102238.59;5043156;28;20053;-83
2023/02/02 04:22:33;;;;;;;0.10;0.10;;;;;;;10.56;62.68;102243.00;5046918;28;20033;-81
2023/02/02 04:24:59;;;;;;;0.10;0.10;;;;;;;10.56;62.55;102244.78;5047642;28;20030;-80
2023/02/02 04:27:25;;;;;;;0.10;0.10;;;;;;;10.55;62.32;102262.44;5047556;28;20039;-81
2023/02/02 04:29:51;;;;;;;0.55;0.55;;;;;;;10.59;62.59;102250.97;5053597;28;20009;-81
2023/02/02 04:32:18;;;;;;;0.10;0.10;;;;;;;10.50;62.68;102261.53;5064483;28;20033;-81
2023/02/02 04:34:44;;;;;;;2.10;2.00;;;;;;;10.53;62.48;102277.47;5064891;28;20010;-82
2023/02/02 04:37:10;;;;;;;0.10;0.10;;;;;;;10.62;62.21;102250.97;5048755;28;20056;-80
2023/02/02 04:39:37;;;;;;;0.10;0.10;;;;;;;10.60;62.58;102257.16;5049717;28;20097;-80
2023/02/02 04:42:03;;;;;;;0.10;0.10;;;;;;;10.58;62.50;102259.81;5038261;28;20037;-82
2023/02/02 04:44:29;;;;;;;0.85;0.85;;;;;;;10.57;62.67;102258.03;5035535;28;20080;-81
2023/02/02 04:46:55;;;;;;;0.10;0.10;;;;;;;10.61;62.72;102264.22;5044936;28;20033;-82
2023/02/02 04:49:21;;;;;;;0.20;0.20;;;;;;;10.52;62.59;102252.72;5047709;28;20034;-81
2023/02/02 04:51:49;;;;;;;0.10;0.10;;;;;;;10.58;62.44;102266.84;5047610;28;20087;-81
2023/02/02 04:54:15;;;;;;;0.10;0.10;;;;;;;10.62;62.37;102266.88;5039581;28;20039;-81
2023/02/02 04:56:41;;;;;;;0.00;0.00;;;;;;;10.61;62.42;102243.91;5036949;28;20021;-81
2023/02/02 04:59:07;;;;;;;0.10;0.10;;;;;;;10.70;62.20;102268.66;5035525;28;20033;-80
2023/02/02 05:01:33;;;;;;;1.20;1.20;;;;;;;10.71;62.19;102270.44;5034612;28;20029;-82
2023/02/02 05:03:59;;;;;;;0.10;0.10;;;;;;;10.65;62.53;102264.25;5035457;28;20057;-81
2023/02/02 05:06:25;;;;;;;0.08;0.08;;;;;;;10.61;62.30;102259.81;5034599;28;20547;-81
2023/02/02 05:08:52;;;;;;;0.10;0.10;;;;;;;10.68;62.24;102261.59;5038088;28;20052;-81
2023/02/02 05:11:20;;;;;;;0.10;0.10;;;;;;;10.60;62.48;102268.63;5042493;28;20064;-79
2023/02/02 05:13:48;;;;;;;0.10;0.10;;;;;;;10.58;62.51;102270.41;5041278;28;20063;-80
2023/02/02 05:16:14;;;;;;;0.10;0.10;;;;;;;10.53;62.82;102258.91;5041365;28;20036;-81
2023/02/02 05:18:41;;;;;;;0.10;0.10;;;;;;;10.63;62.32;102276.59;5037376;28;20037;-80
2023/02/02 05:21:08;;;;;;;0.10;0.10;;;;;;;10.59;62.40;102280.13;5039371;28;20329;-81
2023/02/02 05:23:34;;;;;;;0.10;0.10;;;;;;;10.56;62.25;102277.47;5038634;28;20116;-81
2023/02/02 05:26:00;;;;;;;0.77;0.77;;;;;;;10.62;62.73;102266.00;5037995;28;20056;-82
2023/02/02 05:28:26;;;;;;;0.05;0.05;;;;;;;10.58;62.52;102267.75;5033967;28;20601;-81
2023/02/02 05:30:53;;;;;;;0.00;0.00;;;;;;;10.51;63.03;102268.63;5034210;28;20411;-81
2023/02/02 05:33:19;;;;;;;0.50;0.50;;;;;;;10.61;62.37;102264.22;5033552;28;20029;-80
2023/02/02 05:35:46;;;;;;;0.52;0.52;;;;;;;10.62;62.76;102266.88;5041311;28;20512;-79
2023/02/02 05:38:12;;;;;;;0.08;0.08;;;;;;;10.57;62.87;102289.84;5040863;28;20025;-80
2023/02/02 05:40:39;;;;;;;0.10;0.10;;;;;;;10.61;62.60;102270.41;5038593;28;20037;-81
2023/02/02 05:43:05;;;;;;;1.38;1.38;;;;;;;10.62;62.35;102271.31;5035804;28;20034;-82
2023/02/02 05:45:31;;;;;;;0.10;0.10;;;;;;;10.55;62.70;102286.28;5035182;28;20512;-81
2023/02/02 05:47:57;;;;;;;1.38;1.08;;;;;;;10.63;62.57;102279.25;5046197;28;20071;-82
2023/02/02 05:50:24;;;;;;;0.10;0.10;;;;;;;10.58;62.75;102281.00;5034983;28;20033;-82
2023/02/02 05:52:50;;;;;;;0.10;0.10;;;;;;;10.61;62.68;102272.19;5042607;28;20040;-80
2023/02/02 05:55:18;;;;;;;0.00;0.00;;;;;;;10.56;62.82;102272.16;5033691;28;20033;-79
2023/02/02 05:57:44;;;;;;;1.10;0.77;;;;;;;10.51;63.11;102287.16;5036055;28;20036;-80
2023/02/02 06:00:11;;;;;;;0.10;0.10;;;;;;;10.56;62.71;102274.81;5037209;28;20038;-80
2023/02/02 06:02:37;;;;;;;0.10;0.10;;;;;;;10.54;63.17;102286.28;5042494;28;20033;-79
2023/02/02 06:05:04;;;;;;;0.10;0.10;;;;;;;10.46;63.76;102286.28;5046231;28;20017;-78
2023/02/02 06:07:30;;;;;;;0.10;0.10;;;;;;;10.51;63.30;102287.16;5060498;28;20017;-81
2023/02/02 06:09:56;;;;;;;0.25;0.25;;;;;;;10.46;64.06;102283.63;5051487;28;20043;-83
2023/02/02 06:12:22;;;;;;;0.10;0.10;;;;;;;10.46;64.01;102286.28;5042654;28;20507;-83
2023/02/02 06:14:48;;;;;;;1.42;1.33;;;;;;;10.42;63.94;102290.66;5045727;28;20508;-82
2023/02/02 06:17:14;;;;;;;0.00;0.00;;;;;;;10.47;63.97;102302.16;5039266;28;20132;-83
2023/02/02 06:19:40;;;;;;;0.10;0.10;;;;;;;10.40;64.27;102302.16;5031945;28;20061;-80
2023/02/02 06:22:06;;;;;;;0.10;0.10;;;;;;;10.44;64.02;102304.81;5030954;28;20034;-81
2023/02/02 06:24:32;;;;;;;0.10;0.10;;;;;;;10.45;64.12;102311.88;5040240;28;20029;-81
2023/02/02 06:26:58;;;;;;;0.10;0.10;;;;;;;10.48;63.87;102316.28;5053200;28;20094;-83
2023/02/02 06:29:24;;;;;;;0.10;0.10;;;;;;;10.40;64.31;102318.91;5044719;28;20105;-81
2023/02/02 06:31:50;;;;;;;0.10;0.10;;;;;;;10.53;63.47;102309.28;5053191;28;20036;-80
2023/02/02 06:34:16;;;;;;;0.10;0.10;;;;;;;10.56;63.68;102311.91;5043515;28;20052;-82
2023/02/02 06:36:42;;;;;;;0.10;0.10;;;;;;;10.53;63.76;102317.22;5039362;28;20041;-81
2023/02/02 06:39:09;;;;;;;0.10;0.10;;;;;;;10.57;63.72;102339.31;5046522;28;20029;-81
2023/02/02 06:41:35;;;;;;;0.10;0.10;;;;;;;10.50;64.05;102341.03;5049582;28;20025;-84
2023/02/02 06:44:01;;;;;;;0.10;0.10;;;;;;;10.43;64.32;102352.47;5040600;28;20518;-81
2023/02/02 06:46:28;;;;;;;1.08;0.85;;;;;;;10.44;64.45;102338.38;5045861;28;20032;-80
2023/02/02 06:48:54;;;;;;;1.27;1.17;;;;;;;10.44;64.66;102341.00;5043290;28;20029;-80
2023/02/02 06:51:20;;;;;;;0.10;0.10;;;;;;;10.24;65.92;102344.41;5042392;28;20037;-80
2023/02/02 06:53:48;;;;;;;0.17;0.17;;;;;;;10.23;66.19;102337.38;5042237;28;20045;-80
2023/02/02 06:56:15;;;;;;;0.10;0.10;;;;;;;10.06;66.79;102339.91;5036175;28;20104;-79
2023/02/02 06:58:41;;;;;;;2.08;1.55;;;;;;;9.96;67.77;102344.25;5042909;28;20052;-82
2023/02/02 07:01:11;;;;;;;0.10;0.10;;;;;;;9.97;67.10;102351.31;5033806;28;20564;-82
2023/02/02 07:03:37;;;;;;;1.33;1.30;;;;;;;9.89;67.81;102329.19;5038486;28;20404;-82
2023/02/02 07:06:25;;;;;;;0.10;0.10;;;;;;;9.87;68.08;102326.53;5036469;28;20112;-81
2023/02/02 07:08:52;;;;;;;1.17;0.90;;;;;;;9.78;68.02;102339.72;5050984;28;20026;-79
2023/02/02 07:11:18;;;;;;;0.52;0.52;;;;;;;9.74;68.18;102356.44;5043110;28;20048;-79
2023/02/02 07:13:46;;;;;;;0.08;0.08;;;;;;;9.79;67.92;102345.91;5044785;28;20084;-81
2023/02/02 07:16:13;;;;;;;0.10;0.10;;;;;;;9.78;68.03;102349.41;5043101;28;20021;-80
2023/02/02 07:18:41;;;;;;;0.10;0.10;;;;;;;9.82;68.02;102356.50;5036635;28;20488;-82
2023/02/02 07:21:08;;;;;;;0.10;0.10;;;;;;;9.78;67.67;102349.41;5037938;28;20075;-80
2023/02/02 07:23:34;;;;;;;0.17;0.17;;;;;;;9.75;67.63;102365.28;5038880;28;20037;-81
2023/02/02 07:26:04;;;;;;;0.10;0.10;;;;;;;9.78;67.92;102378.53;5043751;28;20025;-80
2023/02/02 07:28:30;;;;;;;0.47;0.47;;;;;;;9.77;67.68;102352.94;5049983;28;20035;-78
2023/02/02 07:30:56;;;;;;;0.15;0.15;;;;;;;9.71;67.53;102373.19;5042715;28;20029;-80
2023/02/02 07:33:23;;;;;;;0.10;0.10;;;;;;;9.84;67.25;102366.25;5042850;28;20033;-80
2023/02/02 07:35:49;;;;;;;0.10;0.10;;;;;;;9.85;67.11;102362.69;5054252;28;20041;-79
2023/02/02 07:38:15;;;;;;;2.60;2.45;;;;;;;9.85;67.13;102362.69;5056852;28;20047;-79
2023/02/02 07:40:41;;;;;;;0.10;0.10;;;;;;;9.81;67.32;102360.91;5057217;28;20060;-81
2023/02/02 07:43:08;;;;;;;0.10;0.10;;;;;;;9.86;67.02;102368.91;5069772;28;20040;-83
2023/02/02 07:45:34;;;;;;;0.10;0.10;;;;;;;9.86;66.97;102374.19;5076157;28;20037;-81
2023/02/02 07:48:01;;;;;;;0.10;0.10;;;;;;;9.82;66.79;102382.97;5067746;28;20029;-81
2023/02/02 07:50:29;;;;;;;0.10;0.10;;;;;;;9.87;66.70;102391.84;5054650;28;20121;-81
2023/02/02 07:52:57;;;;;;;0.90;0.90;;;;;;;9.79;67.17;102396.19;5056728;28;20045;-80
2023/02/02 07:55:23;;;;;;;0.10;0.10;;;;;;;9.87;66.68;102397.16;5057317;28;20032;-81
2023/02/02 07:57:54;;;;;;;1.52;1.48;;;;;;;9.93;66.38;102383.06;5048855;28;20029;-80
2023/02/02 08:00:20;;;;;;;1.10;1.10;;;;;;;9.86;66.39;102382.13;5054894;28;20086;-79
2023/02/02 08:02:48;;;;;;;0.10;0.10;;;;;;;9.94;66.71;102385.69;5054947;28;20087;-81
2023/02/02 08:05:15;;;;;;;0.10;0.10;;;;;;;9.89;66.58;102384.78;5056309;28;20493;-82
2023/02/02 08:07:41;;;;;;;0.10;0.10;;;;;;;9.98;66.15;102395.47;5054953;28;20036;-80
2023/02/02 08:10:07;;;;;;;0.90;0.90;;;;;;;9.83;66.71;102406.81;5056440;28;20029;-82
2023/02/02 08:12:33;;;;;;;0.10;0.10;;;;;;;9.88;66.22;102394.50;5055537;28;20086;-83
2023/02/02 08:14:59;;;;;;;0.25;0.25;;;;;;;9.91;66.31;102403.34;5055886;28;20033;-81
2023/02/02 08:17:25;;;;;;;0.10;0.10;;;;;;;9.86;66.28;102404.19;5047944;28;20057;-81
2023/02/02 08:19:54;;;;;;;0.75;0.75;;;;;;;9.85;66.13;102415.66;5055309;28;20021;-82
2023/02/02 08:22:20;;;;;;;0.10;0.10;;;;;;;9.90;66.19;102405.09;5055392;28;20029;-82
2023/02/02 08:24:46;;;;;;;0.10;0.10;;;;;;;9.94;66.37;102398.94;5056135;28;20082;-80
2023/02/02 08:27:14;;;;;;;4.38;1.10;;;;;;;9.91;66.10;102409.53;5048079;28;20533;-79
2023/02/02 08:29:40;;;;;;;0.10;0.10;;;;;;;9.99;66.12;102406.94;5055650;28;20186;-81
2023/02/02 08:32:06;;;;;;;0.35;0.35;;;;;;;9.96;65.93;102413.09;5049084;28;20032;-81
2023/02/02 08:34:35;;;;;;;0.10;0.10;;;;;;;9.98;65.79;102421.94;5044677;28;20037;-81
2023/02/02 08:37:03;;;;;;;0.10;0.10;;;;;;;10.04;65.74;102411.41;5054548;28;20052;-81
2023/02/02 08:39:29;;;;;;;0.10;0.10;;;;;;;10.01;65.75;102427.25;5055733;28;20090;-83
2023/02/02 08:41:55;;;;;;;1.20;1.20;;;;;;;10.13;65.91;102421.19;5055627;28;20056;-79
2023/02/02 08:44:22;;;;;;;0.10;0.10;;;;;;;10.08;65.75;102429.94;5055392;28;20025;-81
2023/02/02 08:46:48;;;;;;;0.57;0.57;;;;;;;10.19;65.04;102425.59;5051002;28;20033;-81
2023/02/02 08:49:14;;;;;;;0.10;0.10;;;;;;;10.24;65.17;102430.94;5051846;28;20035;-80
2023/02/02 08:51:40;;;;;;;0.10;0.10;;;;;;;10.30;64.81;102444.25;5054863;28;20112;-81
2023/02/02 08:54:07;;;;;;;0.10;0.10;;;;;;;10.34;64.57;102462.81;5055216;28;20025;-82
2023/02/02 08:56:33;;;;;;;0.10;0.10;;;;;;;10.33;64.35;102455.75;5051257;28;20503;-81
2023/02/02 08:58:59;;;;;;;0.10;0.10;;;;;;;10.28;64.64;102461.88;5054528;28;20028;-81
2023/02/02 09:01:28;;;;;;;0.10;0.10;;;;;;;10.38;64.56;102449.63;5053941;28;20025;-83
2023/02/02 09:03:56;;;;;;;0.10;0.10;;;;;;;10.43;64.53;102450.53;5054546;28;20440;-82
2023/02/02 09:06:27;;;;;;;0.10;0.10;;;;;;;10.44;64.47;102447.00;5054796;28;20033;-82
2023/02/02 09:08:54;;;;;;;0.10;0.10;;;;;;;10.49;64.32;102446.16;5053401;28;20029;-81
2023/02/02 09:11:20;;;;;;;0.10;0.10;;;;;;;10.35;64.77;102453.09;5056661;28;20017;-81
2023/02/02 09:13:51;;;;;;;0.40;0.40;;;;;;;10.35;65.03;102463.69;5054716;28;20033;-81
2023/02/02 09:16:18;;;;;;;0.10;0.10;;;;;;;10.36;64.97;102463.72;5048963;28;20033;-81
2023/02/02 09:18:44;;;;;;;0.10;0.10;;;;;;;10.41;65.37;102468.19;5053362;28;20041;-82
2023/02/02 09:21:13;;;;;;;0.10;0.10;;;;;;;10.33;65.59;102463.69;5064756;28;20530;-80
2023/02/02 09:23:41;;;;;;;0.10;0.10;;;;;;;10.40;65.47;102462.00;5069530;28;20028;-82
2023/02/02 09:26:19;;;;;;;0.10;0.10;;;;;;;10.27;65.80;102476.91;5051858;28;20025;-81
2023/02/02 09:28:51;;;;;;;0.10;0.10;;;;;;;10.26;65.90;102484.84;5048386;28;20028;-80
2023/02/02 09:31:17;;;;;;;0.30;0.30;;;;;;;10.32;65.75;102485.75;5049851;28;20614;-82
2023/02/02 09:33:44;;;;;;;0.10;0.10;;;;;;;10.23;65.83;102484.78;5044271;28;20033;-79
2023/02/02 09:36:14;;;;;;;30.40;1.30;;;;;;;10.24;66.16;102486.56;5055124;28;20626;-79
2023/02/02 09:38:40;;;;;;;0.10;0.10;;;;;;;10.29;66.21;102480.47;5055656;28;20048;-80
2023/02/02 09:41:34;;;;;;;0.10;0.10;;;;;;;10.32;65.88;102491.06;5052256;28;20039;-80
2023/02/02 09:44:40;;;;;;;0.20;0.20;;;;;;;10.35;66.20;102485.81;5047341;28;20036;-80
2023/02/02 09:50:21;;;;;;;0.57;0.57;;;;;;;10.43;65.89;102492.94;5111135;27;20388;-82
2023/02/02 09:55:39;;;;;;;0.10;0.10;;;;;;;10.54;65.59;102477.97;5131954;27;20394;-82
2023/02/02 10:09:47;;;;;;;0.10;0.10;;;;;;;10.92;64.21;102487.06;5063250;28;20364;-81
2023/02/02 10:12:40;;;;;;;0.10;0.10;;;;;;;10.99;63.29;102489.75;5066480;28;20033;-79
2023/02/02 10:21:01;;;;;;;0.10;0.10;;;;;;;11.03;62.91;102505.66;5101996;27;1175991;-81
2023/02/02 10:23:34;;;;;;;0.10;0.10;;;;;;;11.02;63.12;102511.88;5106470;27;20281;-79
2023/02/02 10:26:22;;;;;;;0.10;0.10;;;;;;;11.16;63.04;102515.44;5108221;28;20551;-81
2023/02/02 10:40:01;;;;;;;0.10;0.10;;;;;;;11.16;61.95;102519.00;5099721;27;1191694;-82
2023/02/02 10:45:42;;;;;;;0.10;0.10;;;;;;;11.29;61.59;102530.53;5105891;28;20115;-83
2023/02/02 10:48:21;;;;;;;0.10;0.10;;;;;;;11.24;61.55;102534.94;5102928;28;20027;-84
2023/02/02 10:50:52;;;;;;;0.20;0.20;;;;;;;11.24;61.64;102542.91;5102571;28;20029;-81
2023/02/02 10:53:19;;;;;;;0.10;0.10;;;;;;;11.31;61.72;102526.13;5104881;28;20062;-81
2023/02/02 10:56:10;;;;;;;0.10;0.10;;;;;;;11.45;61.16;102525.28;5096485;28;20032;-80
2023/02/02 11:01:13;;;;;;;0.93;0.93;;;;;;;11.42;61.48;102518.19;5111437;27;1175789;-81
2023/02/02 11:03:39;;;;;;;0.20;0.20;;;;;;;11.41;61.85;102527.03;5124303;27;20034;-81
2023/02/02 11:08:55;;;;;;;0.10;0.10;;;;;;;11.39;61.37;102517.28;5125238;28;20050;-82
2023/02/02 11:16:44;;;;;;;0.10;0.10;;;;;;;11.60;61.16;102519.13;5102769;27;1169103;-82
2023/02/02 11:22:03;;;;;;;0.10;0.10;;;;;;;11.59;60.80;102536.84;5172234;27;20380;-79
2023/02/02 11:24:39;;;;;;;1.00;1.00;;;;;;;11.52;61.02;102535.03;5163861;27;20113;-81
2023/02/02 11:27:14;;;;;;;0.10;0.10;;;;;;;11.58;61.46;102527.09;5161543;27;20027;-80
2023/02/02 11:37:50;;;;;;;0.10;0.10;;;;;;;11.43;61.32;102525.28;5106785;27;1170747;-80
2023/02/02 11:42:56;;;;;;;0.10;0.10;;;;;;;11.44;61.47;102531.47;5093901;27;20394;-78
2023/02/02 11:45:45;;;;;;;0.10;0.10;;;;;;;11.45;61.41;102526.19;5102568;28;20043;-79
2023/02/02 11:48:18;;;;;;;0.10;0.10;;;;;;;11.42;61.65;102522.63;5093592;28;20527;-83
2023/02/02 11:50:47;;;;;;;0.10;0.10;;;;;;;11.42;61.66;102525.28;5082663;28;20040;-82
2023/02/02 11:53:39;;;;;;;0.25;0.25;;;;;;;11.53;61.61;102517.38;5089204;28;20024;-83
2023/02/02 11:56:10;;;;;;;0.10;0.10;;;;;;;11.35;62.22;102519.06;5091048;28;20040;-80
2023/02/02 11:58:45;;;;;;;0.00;0.00;;;;;;;11.43;62.33;102519.09;5088938;28;20121;-82
2023/02/02 12:04:25;;;;;;;0.20;0.20;;;;;;;11.33;61.94;102515.53;5097661;27;1183754;-81
2023/02/02 12:06:51;;;;;;;0.20;0.20;;;;;;;11.27;62.10;102526.13;5109477;28;20529;-81
2023/02/02 12:09:21;;;;;;;3.85;1.00;;;;;;;11.32;62.51;102511.09;5117045;28;20036;-80
2023/02/02 12:14:41;;;;;;;0.17;0.17;;;;;;;11.33;62.59;102513.75;5000536;27;20424;-82
2023/02/02 12:20:30;;;;;;;0.75;0.75;;;;;;;11.32;62.28;102519.94;5092398;27;1322411;-85
2023/02/02 12:23:11;;;;;;;0.10;0.10;;;;;;;11.31;62.59;102534.09;5126102;28;20089;-85
2023/02/02 12:29:02;;;;;;;0.65;0.65;;;;;;;11.25;63.43;102520.81;5102899;27;1226639;-79
2023/02/02 12:37:17;;;;;;;0.10;0.10;;;;;;;11.03;65.52;102526.88;4958601;27;5022418;-87
2023/02/02 12:40:13;;;;;;;0.10;0.10;;;;;;;10.88;66.36;102527.66;5125653;27;20042;-84
2023/02/02 12:48:14;;;;;;;0.10;0.10;;;;;;;10.67;68.11;102519.59;5071741;27;1888245;-81
2023/02/02 12:51:10;;;;;;;0.10;0.10;;;;;;;10.56;68.44;102526.59;5124235;28;20042;-82
2023/02/02 12:56:26;;;;;;;0.10;0.10;;;;;;;10.40;70.09;102514.13;5067517;28;20418;-82
2023/02/02 12:59:19;;;;;;;0.10;0.10;;;;;;;10.45;69.67;102504.44;5052026;28;20033;-82
2023/02/02 13:02:13;;;;;;;0.10;0.10;;;;;;;10.42;70.82;102507.03;5053840;28;20041;-80
2023/02/02 13:07:39;;;;;;;0.10;0.10;;;;;;;10.30;71.03;102503.41;5094094;27;1171084;-81
2023/02/02 13:10:17;;;;;;;0.10;0.10;;;;;;;10.35;71.15;102499.03;5125462;28;20088;-82
2023/02/02 13:12:55;;;;;;;0.10;0.10;;;;;;;10.36;70.85;102492.00;5127656;27;20072;-81
2023/02/02 13:15:42;;;;;;;0.10;0.10;;;;;;;10.33;71.08;102502.53;5131086;28;20060;-80
2023/02/02 13:18:22;;;;;;;0.10;0.10;;;;;;;10.25;71.55;102498.94;5140707;28;20053;-83
2023/02/02 13:20:54;;;;;;;2.47;2.28;;;;;;;10.24;72.22;102497.19;5143210;27;20038;-82
2023/02/02 13:23:26;;;;;;;0.20;0.20;;;;;;;10.22;71.51;102497.16;5130413;28;20098;-81
2023/02/02 13:31:50;;;;;;;0.08;0.08;;;;;;;10.20;72.60;102501.56;5086989;27;1166363;-80